Time;durP1;ratioP1;P1;durP2;ratioP2;P2;SDS_P1;SDS_P2;PMS_P1;PMS_P2;Temp;Humidity;BMP_temperature;BMP_pressure;BME280_temperature;BME280_humidity;BME280_pressure;Samples;Min_cycle;Max_cycle;Signal;HPM_P1;HPM_P2
2022/08/05 00:01:25;;;;;;;9.57;7.60;;;;;;;;;;5012312;28;20049;-80
2022/08/05 00:03:51;;;;;;;12.02;8.05;;;;;;;18.00;100.00;68775.38;5013880;28;20060;-80
2022/08/05 00:06:17;;;;;;;9.88;7.60;;;;;;;17.89;100.00;68762.25;5013576;28;20066;-80
2022/08/05 00:08:43;;;;;;;15.68;8.50;;;;;;;18.06;100.00;68776.25;5013213;28;20367;-81
2022/08/05 00:11:12;;;;;;;13.18;9.38;;;;;;;18.09;100.00;68784.50;5013075;28;20048;-80
2022/08/05 00:13:40;;;;;;;12.50;8.50;;;;;;;17.98;100.00;68772.50;5010650;28;20045;-81
2022/08/05 00:16:12;;;;;;;12.80;9.20;;;;;;;18.01;100.00;68775.94;5013038;28;20038;-81
2022/08/05 00:18:39;;;;;;;14.55;10.07;;;;;;;17.89;100.00;68765.50;5007159;28;20034;-81
2022/08/05 00:21:05;;;;;;;14.25;10.00;;;;;;;;;;5012313;28;20038;-80
2022/08/05 00:23:30;;;;;;;12.80;10.25;;;;;;;17.83;100.00;68755.41;5011740;28;20048;-80
2022/08/05 00:25:56;;;;;;;14.68;10.18;;;;;;;17.83;100.00;68755.97;5012421;28;20045;-80
2022/08/05 00:28:21;;;;;;;11.20;9.23;;;;;;;17.90;100.00;68763.97;5011691;28;20081;-79
2022/08/05 00:30:46;;;;;;;16.45;10.90;;;;;;;;;;5011298;28;20048;-80
2022/08/05 00:33:12;;;;;;;13.27;10.32;;;;;;;17.80;100.00;68753.09;5011362;28;20038;-81
2022/08/05 00:35:37;;;;;;;13.90;11.55;;;;;;;;;;5011793;28;20040;-80
2022/08/05 00:38:03;;;;;;;16.88;11.20;;;;;;;17.74;100.00;68746.25;5010560;28;20092;-81
2022/08/05 00:40:28;;;;;;;16.95;12.43;;;;;;;;;;5012071;28;20045;-81
2022/08/05 00:42:57;;;;;;;17.63;12.50;;;;;;;17.85;100.00;68760.38;5010967;28;20313;-80
2022/08/05 00:45:23;;;;;;;16.25;11.95;;;;;;;17.89;100.00;68756.84;5007856;28;20365;-81
2022/08/05 00:47:48;;;;;;;15.82;12.73;;;;;;;;;;5011925;28;20071;-80
2022/08/05 00:50:13;;;;;;;16.43;12.77;;;;;;;;;;5012113;28;20765;-81
2022/08/05 00:52:38;;;;;;;17.85;12.77;;;;;;;;;;5011383;28;20363;-81
2022/08/05 00:55:04;;;;;;;16.92;13.25;;;;;;;;;;5011891;28;20453;-80
2022/08/05 00:57:30;;;;;;;18.92;13.38;;;;;;;17.65;100.00;68730.03;5006392;28;20042;-81
2022/08/05 00:59:55;;;;;;;20.05;13.63;;;;;;;;;;5008605;28;20703;-81
2022/08/05 01:02:20;;;;;;;19.10;12.80;;;;;;;;;;5009777;28;20042;-79
2022/08/05 01:04:45;;;;;;;22.83;15.82;;;;;;;17.66;100.00;68737.09;5008649;28;20046;-80
2022/08/05 01:07:11;;;;;;;20.02;14.63;;;;;;;;;;5009158;28;20049;-78
2022/08/05 01:09:36;;;;;;;22.52;15.68;;;;;;;17.48;100.00;68716.56;5006714;28;20520;-76
2022/08/05 01:12:07;;;;;;;20.20;15.65;;;;;;;17.58;100.00;68728.00;4999016;28;20708;-79
2022/08/05 01:14:35;;;;;;;22.85;14.20;;;;;;;;;;5007662;28;20064;-79
2022/08/05 01:17:12;;;;;;;21.30;15.50;;;;;;;17.47;100.00;68715.44;5006144;28;20533;-80
2022/08/05 01:19:52;;;;;;;21.45;15.70;;;;;;;17.50;100.00;68718.88;5007507;28;20288;-80
2022/08/05 01:22:26;;;;;;;21.15;15.35;;;;;;;17.44;100.00;68712.03;5009752;28;20595;-79
2022/08/05 01:25:00;;;;;;;19.83;15.10;;;;;;;17.43;100.00;68711.44;5002356;28;20125;-79
2022/08/05 01:27:44;;;;;;;20.50;14.93;;;;;;;17.50;100.00;68718.88;5004661;28;20050;-80
2022/08/05 01:30:11;;;;;;;18.10;13.35;;;;;;;17.55;100.00;68727.25;4986196;28;20038;-80
2022/08/05 01:32:39;;;;;;;16.48;13.30;;;;;;;17.54;100.00;68724.00;5004516;28;20120;-78
2022/08/05 01:35:11;;;;;;;19.05;13.65;;;;;;;17.40;100.00;68710.13;5006081;28;20077;-79
2022/08/05 01:37:44;;;;;;;17.00;13.18;;;;;;;;;;5007345;28;20076;-80
2022/08/05 01:40:11;;;;;;;19.52;13.10;;;;;;;17.40;100.00;68708.00;5004638;28;20058;-80
2022/08/05 01:42:38;;;;;;;16.77;12.95;;;;;;;;;;5008953;28;20092;-80
2022/08/05 01:45:06;;;;;;;15.98;11.80;;;;;;;17.42;100.00;68712.44;5003796;28;20054;-80
2022/08/05 01:47:34;;;;;;;18.83;11.13;;;;;;;17.41;100.00;68711.28;5009314;28;20132;-82
2022/08/05 01:50:07;;;;;;;15.47;11.17;;;;;;;17.29;100.00;68696.03;5008576;28;20038;-81
2022/08/05 01:52:36;;;;;;;16.15;11.13;;;;;;;17.29;100.00;68698.75;5009714;28;20288;-80
2022/08/05 01:55:01;;;;;;;;;;;;;;;;;;5009491;28;20396;-80
2022/08/05 01:57:40;;;;;;;14.45;10.18;;;;;;;17.24;100.00;68689.78;5008121;28;20300;-81
2022/08/05 02:00:10;;;;;;;17.75;11.15;;;;;;;17.26;100.00;68692.03;5002096;28;20064;-80
2022/08/05 02:02:40;;;;;;;16.38;10.93;;;;;;;17.10;100.00;68674.94;5007737;28;20501;-79
2022/08/05 02:05:06;;;;;;;16.27;10.63;;;;;;;;;;5010256;28;20049;-80
2022/08/05 02:07:32;;;;;;;15.55;10.52;;;;;;;17.23;100.00;68691.88;5009415;28;20517;-80
2022/08/05 02:09:58;;;;;;;14.32;9.98;;;;;;;17.20;100.00;68685.75;5009580;28;20417;-81
2022/08/05 02:12:31;;;;;;;14.40;9.93;;;;;;;;;;5009891;28;20042;-80
2022/08/05 02:15:05;;;;;;;13.00;9.27;;;;;;;;;;5007680;28;20050;-82
2022/08/05 02:17:33;;;;;;;14.93;10.18;;;;;;;;;;4999517;28;20039;-80
2022/08/05 02:20:05;;;;;;;15.95;9.85;;;;;;;16.96;100.00;68661.09;5008053;28;20099;-80
2022/08/05 02:22:45;;;;;;;13.55;10.00;;;;;;;;;;5006099;28;20030;-81
2022/08/05 02:25:16;;;;;;;12.43;9.45;;;;;;;;;;5006924;28;20042;-80
2022/08/05 02:27:42;;;;;;;13.60;10.38;;;;;;;;;;5004606;28;20096;-81
2022/08/05 02:30:10;;;;;;;15.10;10.18;;;;;;;16.86;100.00;68648.13;5009417;28;20037;-81
2022/08/05 02:32:37;;;;;;;14.60;11.05;;;;;;;17.09;100.00;68673.22;5005092;28;22241;-79
2022/08/05 02:35:08;;;;;;;12.57;10.15;;;;;;;16.97;100.00;68654.16;5008294;28;20060;-78
2022/08/05 02:37:35;;;;;;;16.42;9.75;;;;;;;;;;5004500;28;20042;-79
2022/08/05 02:40:01;;;;;;;13.15;10.00;;;;;;;;;;5006041;28;20064;-81
2022/08/05 02:42:27;;;;;;;14.40;9.68;;;;;;;16.94;100.00;68656.09;5000251;28;20441;-81
2022/08/05 02:44:55;;;;;;;14.88;9.80;;;;;;;16.99;100.00;68662.38;5005363;28;20045;-80
2022/08/05 02:47:21;;;;;;;13.48;9.48;;;;;;;;;;5001092;28;20042;-80
2022/08/05 02:49:48;;;;;;;15.73;10.10;;;;;;;17.08;100.00;68672.06;5003557;28;20156;-79
2022/08/05 02:52:18;;;;;;;15.90;9.77;;;;;;;17.04;100.00;68672.91;4996358;28;20046;-80
2022/08/05 02:54:44;;;;;;;15.10;10.23;;;;;;;;;;5002631;28;20048;-80
2022/08/05 02:57:12;;;;;;;15.88;10.30;;;;;;;17.04;100.00;68668.09;5006080;28;20038;-80
2022/08/05 02:59:41;;;;;;;14.88;9.57;;;;;;;17.09;100.00;68673.22;5002034;28;20046;-80
2022/08/05 03:02:08;;;;;;;14.98;10.10;;;;;;;;;;5006837;28;20041;-82
2022/08/05 03:04:35;;;;;;;14.45;11.10;;;;;;;17.20;100.00;68687.88;5008956;28;20547;-80
2022/08/05 03:07:00;;;;;;;14.10;10.13;;;;;;;17.17;100.00;68684.47;5003766;28;20061;-79
2022/08/05 03:09:26;;;;;;;15.38;11.10;;;;;;;17.07;100.00;68671.50;5009819;28;20061;-80
2022/08/05 03:11:52;;;;;;;15.48;10.65;;;;;;;;;;5005418;28;20671;-79
2022/08/05 03:14:17;;;;;;;19.33;11.63;;;;;;;16.97;100.00;68659.53;5004628;28;20053;-78
2022/08/05 03:16:42;;;;;;;14.98;10.57;;;;;;;17.17;100.00;68685.03;5006252;28;20748;-80
2022/08/05 03:19:08;;;;;;;17.85;12.43;;;;;;;17.01;100.00;68664.09;4992677;28;20137;-80
2022/08/05 03:21:33;;;;;;;16.52;12.40;;;;;;;17.05;100.00;68669.22;5006577;28;20089;-79
2022/08/05 03:23:59;;;;;;;14.55;10.63;;;;;;;;;;5011639;28;20040;-80
2022/08/05 03:26:24;;;;;;;15.85;11.98;;;;;;;17.05;100.00;68668.66;5007281;28;20046;-80
2022/08/05 03:28:50;;;;;;;16.40;11.40;;;;;;;16.97;100.00;68662.22;5008913;28;20133;-81
2022/08/05 03:31:15;;;;;;;16.98;12.23;;;;;;;;;;5003922;28;20046;-79
2022/08/05 03:33:41;;;;;;;18.67;12.13;;;;;;;16.71;100.00;68631.00;5011150;28;20033;-79
2022/08/05 03:36:06;;;;;;;19.08;13.20;;;;;;;16.66;100.00;68625.88;5010959;28;20046;-79
2022/08/05 03:38:32;;;;;;;14.80;11.57;;;;;;;16.71;100.00;68631.00;5010290;28;20048;-79
2022/08/05 03:40:57;;;;;;;18.35;11.35;;;;;;;16.65;100.00;68624.16;5011730;28;20403;-80
2022/08/05 03:43:24;;;;;;;14.75;10.73;;;;;;;;;;5014227;28;20034;-80
2022/08/05 03:45:50;;;;;;;12.90;10.25;;;;;;;;;;5012341;28;20053;-79
2022/08/05 03:48:16;;;;;;;13.65;10.60;;;;;;;16.55;100.00;68612.75;5000952;28;20526;-79
2022/08/05 03:50:49;;;;;;;16.08;11.15;;;;;;;16.57;100.00;68615.63;4999527;28;20042;-80
2022/08/05 03:53:22;;;;;;;13.93;10.38;;;;;;;16.54;100.00;68606.22;5012165;28;20041;-80
2022/08/05 03:55:51;;;;;;;17.02;10.73;;;;;;;;;;5006054;28;20048;-79
2022/08/05 03:58:20;;;;;;;13.00;9.77;;;;;;;16.50;100.00;68609.75;5009230;28;20038;-79
2022/08/05 04:00:48;;;;;;;15.38;9.45;;;;;;;16.56;100.00;68609.09;5005639;28;20113;-80
2022/08/05 04:03:15;;;;;;;17.20;8.98;;;;;;;16.73;100.00;68638.66;5010622;28;20034;-79
2022/08/05 04:05:43;;;;;;;17.17;9.63;;;;;;;16.76;100.00;68639.41;5009707;28;20069;-79
2022/08/05 04:08:09;;;;;;;13.02;9.02;;;;;;;;;;5010107;28;20054;-80
2022/08/05 04:10:35;;;;;;;12.73;8.77;;;;;;;;;;4997952;28;20046;-79
2022/08/05 04:13:00;;;;;;;10.65;8.55;;;;;;;16.53;100.00;68611.03;5006537;28;20120;-81
2022/08/05 04:15:26;;;;;;;14.82;9.05;;;;;;;16.56;100.00;68614.47;5013501;28;20041;-80
2022/08/05 04:17:53;;;;;;;13.25;9.25;;;;;;;16.62;100.00;68620.72;5009646;28;20088;-80
2022/08/05 04:20:23;;;;;;;11.38;9.43;;;;;;;16.65;100.00;68629.53;5012639;28;20500;-80
2022/08/05 04:22:48;;;;;;;11.57;8.40;;;;;;;16.74;100.00;68637.09;5009746;28;20448;-80
2022/08/05 04:25:14;;;;;;;13.90;8.63;;;;;;;16.71;100.00;68631.00;5012999;28;20046;-80
2022/08/05 04:27:40;;;;;;;12.65;9.20;;;;;;;16.72;100.00;68632.16;5011301;28;20041;-79
2022/08/05 04:30:07;;;;;;;14.48;9.73;;;;;;;16.66;100.00;68625.88;5011392;28;20149;-79
2022/08/05 04:32:32;;;;;;;10.65;8.30;;;;;;;16.71;100.00;68625.63;5025833;28;20068;-80
2022/08/05 04:34:58;;;;;;;15.38;8.60;;;;;;;16.68;100.00;68627.56;5010146;28;20587;-79
2022/08/05 04:37:23;;;;;;;14.48;8.77;;;;;;;16.72;100.00;68631.59;5009496;28;20118;-80
2022/08/05 04:39:48;;;;;;;13.02;8.10;;;;;;;;;;5008896;28;20456;-80
2022/08/05 04:42:14;;;;;;;14.35;8.98;;;;;;;;;;4999645;28;20041;-81
2022/08/05 04:44:39;;;;;;;11.93;8.10;;;;;;;;;;5011236;28;20034;-79
2022/08/05 04:47:05;;;;;;;10.30;7.60;;;;;;;16.56;100.00;68614.47;5010870;28;20053;-81
2022/08/05 04:49:30;;;;;;;13.15;7.45;;;;;;;16.61;100.00;68620.16;5007656;28;20283;-80
2022/08/05 04:51:55;;;;;;;11.23;7.90;;;;;;;16.64;100.00;68623.03;5011873;28;20088;-80
2022/08/05 04:54:21;;;;;;;11.88;7.85;;;;;;;16.62;100.00;68620.72;5012016;28;20058;-80
2022/08/05 04:56:46;;;;;;;11.25;8.55;;;;;;;16.65;100.00;68624.16;5010012;28;20041;-80
2022/08/05 04:59:13;;;;;;;13.57;8.65;;;;;;;16.67;100.00;68632.38;5010843;28;20050;-79
2022/08/05 05:01:38;;;;;;;10.15;8.88;;;;;;;;;;5009583;28;20040;-80
2022/08/05 05:04:03;;;;;;;13.90;9.07;;;;;;;16.66;100.00;68625.88;5010237;28;20042;-81
2022/08/05 05:06:29;;;;;;;12.20;9.55;;;;;;;16.63;100.00;68621.88;5005717;28;20352;-80
2022/08/05 05:08:54;;;;;;;15.15;9.50;;;;;;;16.59;100.00;68620.56;5011520;28;20791;-81
2022/08/05 05:11:21;;;;;;;12.00;8.95;;;;;;;16.53;100.00;68610.47;5010403;28;20070;-80
2022/08/05 05:13:46;;;;;;;15.38;10.48;;;;;;;16.59;100.00;68623.25;5010613;28;20041;-81
2022/08/05 05:16:12;;;;;;;14.45;10.75;;;;;;;16.57;100.00;68615.03;5010019;28;20037;-80
2022/08/05 05:18:37;;;;;;;18.13;10.63;;;;;;;16.59;100.00;68617.31;5008953;28;20053;-80
2022/08/05 05:21:03;;;;;;;16.80;10.02;;;;;;;16.63;100.00;68621.88;5006174;28;20120;-80
2022/08/05 05:23:28;;;;;;;17.20;11.02;;;;;;;;;;5009643;28;20091;-79
2022/08/05 05:25:53;;;;;;;14.38;10.30;;;;;;;16.61;100.00;68619.59;5009833;28;20138;-80
2022/08/05 05:28:19;;;;;;;13.75;10.15;;;;;;;;;;5008334;28;20060;-80
2022/08/05 05:30:45;;;;;;;12.82;10.07;;;;;;;16.34;100.00;68584.59;5004024;28;20563;-80
2022/08/05 05:33:10;;;;;;;13.70;9.90;;;;;;;;;;5005563;28;20045;-80
2022/08/05 05:35:36;;;;;;;14.10;10.35;;;;;;;16.42;100.00;68598.50;5008303;28;20457;-80
2022/08/05 05:38:03;;;;;;;13.23;10.80;;;;;;;;;;5007646;28;20037;-79
2022/08/05 05:40:29;;;;;;;14.52;10.60;;;;;;;16.28;100.00;68585.78;5009805;28;20049;-81
2022/08/05 05:42:55;;;;;;;12.93;9.90;;;;;;;;;;5007533;28;20052;-80
2022/08/05 05:45:20;;;;;;;12.90;9.18;;;;;;;;;;5004175;28;20125;-80
2022/08/05 05:47:46;;;;;;;13.65;10.10;;;;;;;;;;5002553;28;20137;-82
2022/08/05 05:50:13;;;;;;;11.35;8.45;;;;;;;;;;5000632;28;20069;-80
2022/08/05 05:52:39;;;;;;;17.25;9.30;;;;;;;;;;5000829;28;20130;-82
2022/08/05 05:55:10;;;;;;;16.48;10.45;;;;;;;16.19;100.00;68573.41;5009484;28;20057;-83
2022/08/05 05:57:37;;;;;;;15.10;10.75;;;;;;;16.15;100.00;68568.28;5004534;28;20077;-80
2022/08/05 06:00:05;;;;;;;15.80;11.27;;;;;;;16.06;100.00;68561.28;5004100;28;20070;-80
2022/08/05 06:02:30;;;;;;;15.75;11.02;;;;;;;16.07;100.00;68559.75;5006821;28;20064;-79
2022/08/05 06:04:55;;;;;;;16.45;11.43;;;;;;;;;;5007788;28;20046;-80
2022/08/05 06:07:21;;;;;;;17.75;11.45;;;;;;;16.06;100.00;68558.03;5006289;28;20440;-80
2022/08/05 06:09:46;;;;;;;13.88;10.73;;;;;;;16.08;100.00;68560.88;5005220;28;20134;-79
2022/08/05 06:12:12;;;;;;;17.92;11.32;;;;;;;16.10;100.00;68565.28;5006773;28;20038;-80
2022/08/05 06:14:37;;;;;;;15.63;11.25;;;;;;;16.05;100.00;68557.47;5007102;28;20037;-80
2022/08/05 06:17:03;;;;;;;16.30;11.48;;;;;;;15.94;100.00;68547.59;5006632;28;20074;-79
2022/08/05 06:19:29;;;;;;;17.33;12.07;;;;;;;16.00;100.00;68552.34;5006724;28;20057;-79
2022/08/05 06:21:54;;;;;;;17.23;11.90;;;;;;;;;;5007673;28;20092;-80
2022/08/05 06:24:19;;;;;;;16.88;11.38;;;;;;;16.18;100.00;68566.34;5006173;28;20532;-80
2022/08/05 06:26:45;;;;;;;17.52;11.68;;;;;;;16.10;100.00;68563.16;5004839;28;20709;-80
2022/08/05 06:29:10;;;;;;;17.75;11.05;;;;;;;16.17;100.00;68571.16;5002399;28;20050;-82
2022/08/05 06:31:37;;;;;;;16.10;11.05;;;;;;;16.01;100.00;68553.47;5002252;28;20057;-80
2022/08/05 06:34:02;;;;;;;14.10;10.50;;;;;;;;;;5001094;28;20038;-79
2022/08/05 06:36:28;;;;;;;15.07;10.63;;;;;;;;;;4996457;28;20053;-79
2022/08/05 06:38:53;;;;;;;13.93;10.35;;;;;;;16.14;100.00;68567.16;4997992;28;20476;-80
2022/08/05 06:41:20;;;;;;;18.83;11.27;;;;;;;16.12;100.00;68564.88;5002933;28;20107;-80
2022/08/05 06:43:46;;;;;;;12.52;10.80;;;;;;;16.12;100.00;68567.56;4995688;28;20045;-81
2022/08/05 06:46:11;;;;;;;14.52;10.27;;;;;;;;;;4995734;28;20192;-79
2022/08/05 06:48:37;;;;;;;17.83;12.02;;;;;;;16.17;100.00;68571.16;5003718;28;20549;-78
2022/08/05 06:51:03;;;;;;;18.05;11.43;;;;;;;;;;5006686;28;20038;-79
2022/08/05 06:53:29;;;;;;;17.88;11.80;;;;;;;16.18;100.00;68571.72;5009085;28;20046;-79
2022/08/05 06:55:57;;;;;;;16.23;11.60;;;;;;;16.04;100.00;68558.44;5002121;28;20181;-80
2022/08/05 06:58:23;;;;;;;16.17;12.65;;;;;;;16.08;100.00;68554.94;4999724;28;20050;-81
2022/08/05 07:00:49;;;;;;;18.65;12.23;;;;;;;16.17;100.00;68571.16;4998736;28;20044;-80
2022/08/05 07:03:14;;;;;;;17.75;11.45;;;;;;;16.18;100.00;68571.72;4997488;28;20053;-81
2022/08/05 07:05:40;;;;;;;18.10;11.35;;;;;;;16.01;100.00;68552.91;5002490;28;20029;-79
2022/08/05 07:08:06;;;;;;;13.07;10.43;;;;;;;16.02;100.00;68549.25;4998970;28;20169;-82
2022/08/05 07:10:31;;;;;;;16.42;11.32;;;;;;;16.05;100.00;68556.88;5003669;28;20042;-81
2022/08/05 07:18:24;;;;;;;17.77;12.50;;;;;;;16.05;100.00;68556.88;5002942;28;20066;-79
2022/08/05 07:20:50;;;;;;;17.42;12.25;;;;;;;16.00;100.00;68552.34;5004280;28;20041;-82
2022/08/05 07:23:15;;;;;;;18.40;11.13;;;;;;;16.04;100.00;68556.31;5002574;28;20477;-80
2022/08/05 07:25:40;;;;;;;16.02;11.18;;;;;;;16.05;100.00;68556.88;5004473;28;20042;-80
2022/08/05 07:28:06;;;;;;;15.60;11.10;;;;;;;16.17;100.00;68565.78;5003796;28;20453;-80
2022/08/05 07:30:33;;;;;;;16.98;12.48;;;;;;;16.35;100.00;68591.09;5004523;28;20041;-79
2022/08/05 07:33:00;;;;;;;15.68;11.18;;;;;;;16.32;100.00;68587.69;5005638;28;20496;-81
2022/08/05 07:35:26;;;;;;;13.77;11.35;;;;;;;16.33;100.00;68588.25;5004102;28;20084;-81
2022/08/05 07:37:51;;;;;;;15.52;10.98;;;;;;;16.27;100.00;68581.97;5005149;28;20046;-80
2022/08/05 07:40:16;;;;;;;16.75;11.98;;;;;;;;;;5004111;28;20109;-80
2022/08/05 07:42:42;;;;;;;13.52;11.63;;;;;;;;;;4998290;28;20043;-79
2022/08/05 07:45:07;;;;;;;13.00;10.90;;;;;;;;;;4999180;28;20038;-80
2022/08/05 07:47:32;;;;;;;16.63;11.70;;;;;;;16.40;100.00;68596.81;4995700;28;20041;-81
2022/08/05 07:49:58;;;;;;;13.70;10.65;;;;;;;16.20;100.00;68576.69;5008339;28;20030;-80
2022/08/05 07:52:23;;;;;;;16.08;11.80;;;;;;;16.16;100.00;68569.44;5007842;28;20052;-82
2022/08/05 07:54:49;;;;;;;17.13;11.43;;;;;;;16.22;100.00;68579.53;5006141;28;20464;-80
2022/08/05 07:57:14;;;;;;;15.85;11.40;;;;;;;16.30;100.00;68584.81;5008502;28;20088;-81
2022/08/05 07:59:39;;;;;;;16.35;12.30;;;;;;;16.29;100.00;68583.69;4998515;28;20057;-81
2022/08/05 08:02:08;;;;;;;15.57;11.43;;;;;;;16.28;100.00;68577.16;5003167;28;20077;-79
2022/08/05 08:04:33;;;;;;;15.57;12.23;;;;;;;16.39;100.00;68595.66;5000115;28;20041;-78
2022/08/05 08:06:59;;;;;;;16.10;11.88;;;;;;;16.51;100.00;68603.38;5004325;28;20042;-79
2022/08/05 08:09:26;;;;;;;17.92;12.07;;;;;;;16.54;100.00;68611.59;5008633;28;20054;-78
2022/08/05 08:11:51;;;;;;;16.70;12.50;;;;;;;;;;5005607;28;20040;-79
2022/08/05 08:14:17;;;;;;;17.90;11.80;;;;;;;16.59;100.00;68617.31;5008185;28;20042;-78
2022/08/05 08:16:42;;;;;;;14.40;11.63;;;;;;;16.67;100.00;68627.00;5009323;28;20041;-81
2022/08/05 08:19:08;;;;;;;19.08;12.30;;;;;;;16.60;100.00;68619.03;4996492;28;20080;-79
2022/08/05 08:21:33;;;;;;;18.75;12.93;;;;;;;16.86;100.00;68642.16;4993322;28;20564;-79
2022/08/05 08:23:59;;;;;;;16.98;12.02;;;;;;;16.77;100.00;68637.84;5003438;28;20445;-79
2022/08/05 08:26:24;;;;;;;13.95;11.75;;;;;;;;;;5001953;28;20420;-79
2022/08/05 08:28:50;;;;;;;15.32;11.63;;;;;;;17.03;100.00;68666.38;5004005;28;20073;-78
2022/08/05 08:31:16;;;;;;;16.73;11.98;;;;;;;17.03;100.00;68661.00;5007106;28;20565;-80
2022/08/05 08:33:42;;;;;;;17.88;12.57;;;;;;;17.05;100.00;68671.34;5002536;28;20074;-79
2022/08/05 08:36:08;;;;;;;21.50;12.65;;;;;;;17.12;100.00;68671.84;5010508;28;20624;-79
2022/08/05 08:38:33;;;;;;;15.27;12.25;;;;;;;17.06;100.00;68669.78;4994625;28;20137;-79
2022/08/05 08:41:03;;;;;;;15.18;11.80;;;;;;;17.13;100.00;68677.78;5000740;28;20053;-81
2022/08/05 08:43:31;;;;;;;15.93;10.15;;;;;;;17.20;100.00;68685.75;5002589;28;20498;-79
2022/08/05 08:46:00;;;;;;;13.80;10.60;;;;;;;17.34;100.00;68701.16;5003310;28;20045;-80
2022/08/05 08:48:26;;;;;;;16.52;10.65;;;;;;;;;;5003110;28;20045;-79
2022/08/05 08:50:52;;;;;;;14.90;10.50;;;;;;;;;;5002237;28;20498;-79
2022/08/05 08:53:17;;;;;;;12.57;10.38;;;;;;;17.57;100.00;68730.09;5002489;28;20131;-80
2022/08/05 08:55:44;;;;;;;14.13;11.07;;;;;;;17.62;100.00;68732.56;5003392;28;20044;-82
2022/08/05 08:58:13;;;;;;;12.95;10.55;;;;;;;;;;5003551;28;20413;-80
2022/08/05 09:00:41;;;;;;;13.77;9.57;;;;;;;17.53;100.00;68722.28;5002527;28;20061;-79
2022/08/05 09:03:06;;;;;;;13.07;10.38;;;;;;;17.68;100.00;68734.00;5001943;28;20050;-78
2022/08/05 09:05:32;;;;;;;15.50;10.73;;;;;;;17.78;100.00;68750.84;5003134;28;20052;-79
2022/08/05 09:07:58;;;;;;;14.02;11.32;;;;;;;17.63;100.00;68733.69;5000251;28;20042;-82
2022/08/05 09:10:23;;;;;;;12.27;9.85;;;;;;;17.61;100.00;68726.03;5004251;28;20044;-80
2022/08/05 09:12:49;;;;;;;13.57;9.68;;;;;;;17.75;100.00;68747.41;5003271;28;20456;-79
2022/08/05 09:15:15;;;;;;;14.88;11.15;;;;;;;17.93;100.00;68767.38;5001083;28;20038;-83
2022/08/05 09:17:40;;;;;;;13.80;10.10;;;;;;;;;;5003358;28;20038;-79
2022/08/05 09:20:06;;;;;;;15.63;11.98;;;;;;;;;;4999761;28;20132;-82
2022/08/05 09:22:50;;;;;;;15.60;12.05;;;;;;;;;;5001079;28;20405;-79
2022/08/05 09:25:19;;;;;;;15.90;11.10;;;;;;;18.17;100.00;68793.63;5001747;28;20540;-80
2022/08/05 09:27:44;;;;;;;;;;;;;;;;;;4999772;28;20045;-83
2022/08/05 09:30:10;;;;;;;13.13;10.80;;;;;;;17.96;100.00;68770.25;4998892;28;19929;-80
2022/08/05 09:32:38;;;;;;;16.85;13.50;;;;;;;;;;5002567;28;20124;-79
2022/08/05 09:35:12;;;;;;;15.93;12.43;;;;;;;18.31;100.00;68800.97;5002052;28;20038;-79
2022/08/05 09:37:48;;;;;;;16.00;12.27;;;;;;;18.18;100.00;68794.78;5001895;28;20037;-80
2022/08/05 09:40:33;;;;;;;17.63;11.68;;;;;;;;;;5002331;28;20046;-83
2022/08/05 09:43:00;;;;;;;16.90;12.20;;;;;;;18.47;100.00;68822.50;4998318;28;20062;-82
2022/08/05 09:45:37;;;;;;;16.27;12.90;;;;;;;18.56;100.00;68831.63;4999769;28;20554;-80
2022/08/05 09:48:26;;;;;;;17.63;14.25;;;;;;;18.67;100.00;68844.78;4999610;28;20038;-79
2022/08/05 09:51:07;;;;;;;15.38;13.65;;;;;;;18.58;100.00;68839.31;5002433;28;20425;-79
2022/08/05 09:53:46;;;;;;;19.05;13.27;;;;;;;;;;5001590;28;20576;-79
2022/08/05 09:56:12;;;;;;;14.60;12.95;;;;;;;18.66;100.00;68848.44;5002717;28;20084;-79
2022/08/05 09:58:37;;;;;;;17.13;13.63;;;;;;;18.60;100.00;68842.16;5001574;28;20489;-79
2022/08/05 10:01:05;;;;;;;21.70;14.77;;;;;;;18.71;100.00;68854.16;5001986;28;20046;-80
2022/08/05 10:03:30;;;;;;;17.52;15.70;;;;;;;;;;4998753;28;20429;-82
2022/08/05 10:06:22;;;;;;;18.67;14.55;;;;;;;18.68;100.00;68851.31;5003290;28;20052;-81
2022/08/05 10:08:47;;;;;;;22.17;15.73;;;;;;;18.84;100.00;68863.06;4998608;28;20409;-83
2022/08/05 10:11:15;;;;;;;16.92;14.45;;;;;;;18.87;100.00;68872.47;4999394;28;20056;-84
2022/08/05 10:13:40;;;;;;;14.88;13.13;;;;;;;;;;4999016;28;20030;-82
2022/08/05 10:16:26;;;;;;;15.77;14.25;;;;;;;19.19;100.00;68899.19;5003731;28;20044;-82
2022/08/05 10:18:53;;;;;;;18.23;14.00;;;;;;;19.46;100.00;68932.75;5002543;28;20046;-81
2022/08/05 10:21:18;;;;;;;12.32;10.82;;;;;;;19.60;100.00;68953.59;4997851;28;20058;-84
2022/08/05 10:23:44;;;;;;;15.18;10.95;;;;;;;19.71;100.00;68960.19;4998021;28;20038;-82
2022/08/05 10:26:13;;;;;;;12.60;8.57;;;;;;;19.86;98.20;68976.78;4998883;28;20139;-80
2022/08/05 10:28:39;;;;;;;16.33;8.65;;;;;;;;;;4996002;28;20030;-81
2022/08/05 10:31:04;;;;;;;11.60;7.70;;;;;;;20.12;94.42;69005.94;4997255;28;20049;-81
2022/08/05 10:33:33;;;;;;;11.13;7.70;;;;;;;20.14;94.46;69008.78;4998776;28;20102;-84
2022/08/05 10:36:00;;;;;;;7.50;4.53;;;;;;;20.02;90.46;68995.06;4999001;28;20105;-82
2022/08/05 10:38:27;;;;;;;6.78;4.63;;;;;;;20.11;88.37;69004.78;4999203;28;20137;-79
2022/08/05 10:41:16;;;;;;;7.63;4.28;;;;;;;20.19;88.94;69013.91;4997328;28;20502;-79
2022/08/05 10:43:44;;;;;;;6.72;4.20;;;;;;;20.12;88.39;69011.34;5004182;28;20138;-84
2022/08/05 10:46:12;;;;;;;6.72;3.40;;;;;;;20.06;87.38;69005.59;4999346;28;20580;-79
2022/08/05 10:48:38;;;;;;;6.95;3.20;;;;;;;20.08;86.86;69006.75;5000694;28;20030;-79
2022/08/05 10:51:17;;;;;;;4.40;3.20;;;;;;;20.02;84.87;68995.06;4998553;28;20493;-82
2022/08/05 10:53:54;;;;;;;5.65;3.28;;;;;;;19.89;86.32;68980.78;5001202;28;20046;-80
2022/08/05 10:56:24;;;;;;;6.90;2.60;;;;;;;19.87;86.96;68978.47;4992518;28;20046;-82
2022/08/05 10:58:52;;;;;;;5.53;2.50;;;;;;;19.87;87.38;68983.88;4997739;28;20041;-83
2022/08/05 11:01:28;;;;;;;4.90;2.90;;;;;;;19.85;86.49;68981.59;4996608;28;20069;-83
2022/08/05 11:04:07;;;;;;;5.78;2.80;;;;;;;19.81;84.88;68968.94;5001564;28;20676;-83
2022/08/05 11:06:34;;;;;;;5.38;2.60;;;;;;;19.99;85.67;68991.63;4997822;28;20145;-80
2022/08/05 11:09:20;;;;;;;5.10;2.53;;;;;;;20.24;81.02;69025.03;5000802;28;20034;-82
2022/08/05 11:11:49;;;;;;;5.68;2.00;;;;;;;20.38;81.06;69035.06;4999730;28;20525;-83
2022/08/05 11:14:37;;;;;;;5.05;1.85;;;;;;;20.57;79.44;69056.84;4999277;28;20050;-84
2022/08/05 11:17:25;;;;;;;3.63;2.15;;;;;;;20.78;77.52;69080.28;4999370;28;20050;-81
2022/08/05 11:19:52;;;;;;;3.58;1.77;;;;;;;;;;5001394;28;20065;-80
2022/08/05 11:22:41;;;;;;;4.50;1.98;;;;;;;20.85;77.73;69082.28;5002205;28;20033;-81
2022/08/05 11:25:33;;;;;;;3.80;1.50;;;;;;;20.69;73.08;69069.97;5001180;28;20056;-83
2022/08/05 11:28:10;;;;;;;2.60;1.30;;;;;;;;;;5001500;28;20054;-83
2022/08/05 11:31:00;;;;;;;5.53;1.48;;;;;;;20.96;70.66;69105.69;5001515;28;20042;-81
2022/08/05 11:33:34;;;;;;;3.40;1.67;;;;;;;21.33;71.36;69141.47;5001043;28;20092;-80
2022/08/05 11:36:09;;;;;;;3.90;1.48;;;;;;;21.24;71.75;69131.19;5001218;28;20044;-81
2022/08/05 11:38:37;;;;;;;3.60;1.42;;;;;;;21.13;71.04;69124.56;5004348;28;20038;-83
2022/08/05 11:41:07;;;;;;;3.55;1.77;;;;;;;20.92;71.47;69093.56;5002595;28;20103;-82
2022/08/05 11:43:33;;;;;;;2.88;1.77;;;;;;;20.71;70.37;69072.84;5008687;28;20046;-82
2022/08/05 11:45:59;;;;;;;3.05;1.75;;;;;;;;;;5007486;28;20046;-82
2022/08/05 11:48:25;;;;;;;4.43;1.52;;;;;;;;;;5009928;28;20061;-81
2022/08/05 11:50:51;;;;;;;2.97;1.50;;;;;;;20.56;70.46;69050.25;5006069;28;20062;-81
2022/08/05 11:53:18;;;;;;;3.50;1.52;;;;;;;20.62;72.12;69062.53;5007010;28;20062;-82
2022/08/05 11:55:59;;;;;;;2.75;1.30;;;;;;;20.68;67.36;69074.22;5004992;28;20120;-82
2022/08/05 11:58:45;;;;;;;1.42;0.90;;;;;;;20.68;66.80;69069.38;4986023;28;20056;-81
2022/08/05 12:01:18;;;;;;;2.35;0.88;;;;;;;20.77;67.15;69079.13;5006016;28;20041;-81
2022/08/05 12:03:53;;;;;;;2.15;0.82;;;;;;;20.88;66.63;69091.13;5007131;28;20045;-83
2022/08/05 12:06:24;;;;;;;3.72;1.00;;;;;;;21.02;63.11;69112.56;5003244;28;20045;-81